KZR663 UAAA-EGLL
Flight info
| Callsign | KZR663 |
|---|---|
| Flight time | N/A |
| Altitude | 36000 |
| Route | EKLAT1B EKLAT Z370 TOMGO M610 ARBOL Z621 GENDI N147 OTBOR/N0461F320 A480 TIMGA B476 OGLID/N0461F340 B476 METKA L88 RASAM N199 EDATA M11 REBLO UM11 CRM UL746 GOKPA/N0455F360 UL746 ODERO T86 MATEL L744 ELRUR L602 KOMAN DCT USIRO DCT TEVRO DCT BIVBU DCT AGNEP DCT ERUKO DCT TEGRI DCT KET DCT PUCOG DCT GILEP DCT ZOLKU DCT TEKNO DCT PESAT DCT GESGI DCT MUGGU DCT SOVIL DCT FRE DCT RENKA L610 STAUB/N0399F240 L610 UPALA/N0456F360 Z744 LEPSA DCT ULNOK L608 LOGAN |
| Aircraft | A21N/M-SDE3FGHIRWY/LB1 |
Departure
| Time | 2026-05-07 01:37 |
|---|---|
| Airport | Almaty International Airport (UAAA) |
Arrival
| Time | N/A |
|---|---|
| Airport | London Heathrow Airport (EGLL) |
| Time | Latitude | Longitude | Altitude | Speed | Heading |
|---|---|---|---|---|---|
| 2026-05-07 01:21 | 43.35052 | 77.01247 | 2245 ft | 0 kts | 245° |
| 2026-05-07 01:25 | 43.35056 | 77.01260 | 2246 ft | 2 kts | 245° |
| 2026-05-07 01:26 | 43.35062 | 77.01279 | 2246 ft | 2 kts | 245° |
| 2026-05-07 01:26 | 43.35068 | 77.01297 | 2246 ft | 2 kts | 245° |
| 2026-05-07 01:26 | 43.35075 | 77.01316 | 2246 ft | 2 kts | 245° |
| 2026-05-07 01:26 | 43.35079 | 77.01327 | 2246 ft | 2 kts | 246° |
| 2026-05-07 01:27 | 43.35088 | 77.01344 | 2246 ft | 2 kts | 214° |
| 2026-05-07 01:27 | 43.35101 | 77.01353 | 2246 ft | 2 kts | 189° |
| 2026-05-07 01:27 | 43.35117 | 77.01353 | 2246 ft | 2 kts | 163° |
| 2026-05-07 01:27 | 43.35123 | 77.01349 | 2246 ft | 1 kts | 151° |
| 2026-05-07 01:28 | 43.35126 | 77.01347 | 2246 ft | 0 kts | 155° |
| 2026-05-07 01:31 | 43.35125 | 77.01347 | 2246 ft | 1 kts | 155° |
| 2026-05-07 01:32 | 43.35111 | 77.01357 | 2246 ft | 2 kts | 151° |
| 2026-05-07 01:32 | 43.35085 | 77.01376 | 2246 ft | 4 kts | 157° |
| 2026-05-07 01:32 | 43.35053 | 77.01395 | 2247 ft | 5 kts | 157° |
| 2026-05-07 01:32 | 43.35015 | 77.01417 | 2247 ft | 8 kts | 156° |
| 2026-05-07 01:33 | 43.34956 | 77.01453 | 2247 ft | 9 kts | 155° |
| 2026-05-07 01:33 | 43.34895 | 77.01492 | 2247 ft | 9 kts | 156° |
| 2026-05-07 01:33 | 43.34828 | 77.01505 | 2247 ft | 10 kts | 193° |
| 2026-05-07 01:33 | 43.34760 | 77.01472 | 2247 ft | 10 kts | 199° |
| 2026-05-07 01:34 | 43.34690 | 77.01446 | 2247 ft | 10 kts | 184° |
| 2026-05-07 01:34 | 43.34617 | 77.01459 | 2247 ft | 10 kts | 175° |
| 2026-05-07 01:34 | 43.34547 | 77.01489 | 2247 ft | 10 kts | 158° |
| 2026-05-07 01:34 | 43.34479 | 77.01532 | 2247 ft | 10 kts | 155° |
| 2026-05-07 01:35 | 43.34411 | 77.01575 | 2247 ft | 10 kts | 155° |
| 2026-05-07 01:35 | 43.34341 | 77.01618 | 2248 ft | 11 kts | 155° |
| 2026-05-07 01:35 | 43.34269 | 77.01663 | 2248 ft | 11 kts | 155° |
| 2026-05-07 01:35 | 43.34198 | 77.01710 | 2248 ft | 11 kts | 150° |
| 2026-05-07 01:36 | 43.34157 | 77.01795 | 2248 ft | 11 kts | 89° |
| 2026-05-07 01:36 | 43.34168 | 77.01836 | 2248 ft | 0 kts | 56° |
| 2026-05-07 01:36 | 43.34204 | 77.01910 | 2248 ft | 34 kts | 56° |
| 2026-05-07 01:36 | 43.34474 | 77.02458 | 2248 ft | 102 kts | 56° |
| 2026-05-07 01:37 | 43.34990 | 77.03501 | 2249 ft | 159 kts | 55° |
| 2026-05-07 01:37 | 43.35702 | 77.04954 | 2307 ft | 199 kts | 57° |
| 2026-05-07 01:37 | 43.36482 | 77.06531 | 2873 ft | 201 kts | 57° |
| 2026-05-07 01:37 | 43.37277 | 77.08082 | 3602 ft | 202 kts | 56° |
| 2026-05-07 01:38 | 43.38086 | 77.09616 | 4275 ft | 197 kts | 56° |
| 2026-05-07 01:38 | 43.38902 | 77.11159 | 4585 ft | 207 kts | 56° |
| 2026-05-07 01:38 | 43.39769 | 77.12819 | 4836 ft | 219 kts | 56° |
| 2026-05-07 01:38 | 43.40688 | 77.14583 | 5033 ft | 235 kts | 56° |
| 2026-05-07 01:39 | 43.41837 | 77.16291 | 5201 ft | 254 kts | 33° |
| 2026-05-07 01:39 | 43.43549 | 77.17033 | 5426 ft | 271 kts | 0° |
| 2026-05-07 01:39 | 43.45380 | 77.16378 | 5746 ft | 281 kts | 333° |
| 2026-05-07 01:39 | 43.47109 | 77.15084 | 6306 ft | 283 kts | 333° |
| 2026-05-07 01:40 | 43.48856 | 77.13859 | 6903 ft | 285 kts | 334° |
| 2026-05-07 01:40 | 43.50644 | 77.12637 | 7502 ft | 287 kts | 334° |
| 2026-05-07 01:40 | 43.52413 | 77.11394 | 7993 ft | 288 kts | 328° |
| 2026-05-07 01:40 | 43.53814 | 77.09469 | 8443 ft | 290 kts | 297° |
| 2026-05-07 01:41 | 43.54376 | 77.06847 | 8967 ft | 288 kts | 272° |
| 2026-05-07 01:41 | 43.54445 | 77.04092 | 9510 ft | 289 kts | 270° |
| 2026-05-07 01:41 | 43.54508 | 77.01343 | 10092 ft | 291 kts | 271° |
| 2026-05-07 01:41 | 43.54593 | 76.98518 | 10532 ft | 303 kts | 270° |
| 2026-05-07 01:42 | 43.54402 | 76.95564 | 10842 ft | 320 kts | 254° |
| 2026-05-07 01:42 | 43.53509 | 76.92695 | 11181 ft | 337 kts | 238° |
| 2026-05-07 01:42 | 43.52174 | 76.89951 | 11659 ft | 353 kts | 235° |
| 2026-05-07 01:42 | 43.50770 | 76.87154 | 12331 ft | 359 kts | 235° |
| 2026-05-07 01:43 | 43.49343 | 76.84302 | 13141 ft | 362 kts | 236° |
| 2026-05-07 01:43 | 43.47933 | 76.81469 | 13772 ft | 360 kts | 236° |
| 2026-05-07 01:43 | 43.46522 | 76.78624 | 14106 ft | 364 kts | 236° |
| 2026-05-07 01:43 | 43.45090 | 76.75731 | 14526 ft | 368 kts | 236° |
| 2026-05-07 01:44 | 43.43652 | 76.72825 | 14909 ft | 371 kts | 237° |
| 2026-05-07 01:44 | 43.42199 | 76.69889 | 15317 ft | 373 kts | 237° |
| 2026-05-07 01:44 | 43.40739 | 76.66945 | 15718 ft | 375 kts | 237° |
| 2026-05-07 01:44 | 43.39269 | 76.63975 | 16101 ft | 377 kts | 237° |
| 2026-05-07 01:45 | 43.37796 | 76.61005 | 16482 ft | 380 kts | 237° |
| 2026-05-07 01:45 | 43.36301 | 76.57993 | 16822 ft | 383 kts | 237° |
| 2026-05-07 01:45 | 43.34793 | 76.54960 | 17196 ft | 385 kts | 237° |
| 2026-05-07 01:45 | 43.33289 | 76.51936 | 17602 ft | 387 kts | 237° |
| 2026-05-07 01:46 | 43.31767 | 76.48888 | 17952 ft | 389 kts | 238° |
| 2026-05-07 01:46 | 43.30243 | 76.45816 | 18281 ft | 392 kts | 239° |
| 2026-05-07 01:46 | 43.29120 | 76.42428 | 18612 ft | 396 kts | 259° |
| 2026-05-07 01:46 | 43.29077 | 76.38692 | 19231 ft | 393 kts | 281° |
| 2026-05-07 01:47 | 43.29584 | 76.35032 | 19906 ft | 392 kts | 282° |
| 2026-05-07 01:47 | 43.30042 | 76.31326 | 20380 ft | 397 kts | 280° |
| 2026-05-07 01:47 | 43.30463 | 76.27562 | 20848 ft | 400 kts | 280° |
| 2026-05-07 01:47 | 43.30861 | 76.23793 | 21320 ft | 403 kts | 279° |
| 2026-05-07 01:48 | 43.31248 | 76.19993 | 21742 ft | 406 kts | 279° |
| 2026-05-07 01:48 | 43.31634 | 76.16128 | 22139 ft | 409 kts | 280° |
| 2026-05-07 01:48 | 43.32012 | 76.12287 | 22521 ft | 412 kts | 280° |
| 2026-05-07 01:48 | 43.32397 | 76.08336 | 22911 ft | 415 kts | 280° |
| 2026-05-07 01:49 | 43.32772 | 76.04462 | 23246 ft | 418 kts | 280° |
| 2026-05-07 01:49 | 43.33155 | 76.00494 | 23567 ft | 421 kts | 280° |
| 2026-05-07 01:49 | 43.33542 | 75.96478 | 23868 ft | 422 kts | 280° |
| 2026-05-07 01:49 | 43.33919 | 75.92532 | 24084 ft | 424 kts | 280° |
| 2026-05-07 01:50 | 43.34300 | 75.88513 | 24308 ft | 426 kts | 280° |
| 2026-05-07 01:50 | 43.34687 | 75.84444 | 24543 ft | 427 kts | 280° |
| 2026-05-07 01:50 | 43.35065 | 75.80426 | 24745 ft | 429 kts | 280° |
| 2026-05-07 01:50 | 43.35446 | 75.76366 | 24958 ft | 431 kts | 280° |
| 2026-05-07 01:51 | 43.35828 | 75.72284 | 25234 ft | 433 kts | 280° |
| 2026-05-07 01:51 | 43.36208 | 75.68180 | 25529 ft | 434 kts | 280° |
| 2026-05-07 01:51 | 43.36592 | 75.64040 | 25787 ft | 436 kts | 280° |
| 2026-05-07 01:51 | 43.36973 | 75.59919 | 26038 ft | 438 kts | 280° |
| 2026-05-07 01:52 | 43.37410 | 75.55768 | 26281 ft | 439 kts | 283° |
| 2026-05-07 01:52 | 43.38012 | 75.51708 | 26491 ft | 435 kts | 285° |
| 2026-05-07 01:52 | 43.38728 | 75.47711 | 26383 ft | 431 kts | 287° |
| 2026-05-07 01:52 | 43.39479 | 75.43708 | 26141 ft | 433 kts | 288° |
| 2026-05-07 01:53 | 43.40235 | 75.39729 | 26016 ft | 437 kts | 288° |
| 2026-05-07 01:53 | 43.41005 | 75.35689 | 26164 ft | 439 kts | 288° |
| 2026-05-07 01:53 | 43.41772 | 75.31599 | 26416 ft | 438 kts | 287° |
| 2026-05-07 01:53 | 43.42518 | 75.27578 | 26608 ft | 439 kts | 287° |
| 2026-05-07 01:54 | 43.43271 | 75.23495 | 26758 ft | 441 kts | 287° |
| 2026-05-07 01:54 | 43.44019 | 75.19442 | 26922 ft | 442 kts | 287° |
| 2026-05-07 01:54 | 43.44781 | 75.15322 | 27081 ft | 443 kts | 287° |
| 2026-05-07 01:54 | 43.45533 | 75.11237 | 27230 ft | 445 kts | 286° |
| 2026-05-07 01:55 | 43.46294 | 75.07089 | 27388 ft | 446 kts | 286° |
| 2026-05-07 01:55 | 43.47046 | 75.02975 | 27544 ft | 447 kts | 286° |
| 2026-05-07 01:55 | 43.47802 | 74.98814 | 27716 ft | 447 kts | 286° |
| 2026-05-07 01:55 | 43.48548 | 74.94707 | 27932 ft | 446 kts | 286° |
| 2026-05-07 01:56 | 43.49298 | 74.90558 | 28153 ft | 446 kts | 286° |
| 2026-05-07 01:56 | 43.50036 | 74.86466 | 28370 ft | 445 kts | 286° |
| 2026-05-07 01:56 | 43.50779 | 74.82337 | 28600 ft | 445 kts | 286° |
| 2026-05-07 01:56 | 43.51524 | 74.78207 | 28825 ft | 444 kts | 286° |
| 2026-05-07 01:57 | 43.52271 | 74.74077 | 29034 ft | 443 kts | 286° |
| 2026-05-07 01:57 | 43.53037 | 74.69820 | 29234 ft | 443 kts | 286° |
| 2026-05-07 01:57 | 43.53781 | 74.65670 | 29466 ft | 442 kts | 286° |
| 2026-05-07 01:57 | 43.54514 | 74.61566 | 29683 ft | 442 kts | 286° |
| 2026-05-07 01:58 | 43.55243 | 74.57471 | 29877 ft | 442 kts | 286° |
| 2026-05-07 01:58 | 43.55975 | 74.53346 | 30078 ft | 441 kts | 286° |
| 2026-05-07 01:58 | 43.56694 | 74.49281 | 30292 ft | 441 kts | 286° |
| 2026-05-07 01:58 | 43.57425 | 74.45142 | 30503 ft | 440 kts | 285° |
| 2026-05-07 01:59 | 43.58141 | 74.41066 | 30689 ft | 440 kts | 285° |
| 2026-05-07 01:59 | 43.58864 | 74.36949 | 30846 ft | 440 kts | 285° |
| 2026-05-07 01:59 | 43.59582 | 74.32848 | 31012 ft | 441 kts | 285° |
| 2026-05-07 01:59 | 43.60297 | 74.28745 | 31185 ft | 440 kts | 285° |
| 2026-05-07 02:00 | 43.61006 | 74.24679 | 31361 ft | 440 kts | 285° |
| 2026-05-07 02:00 | 43.61723 | 74.20576 | 31531 ft | 440 kts | 285° |
| 2026-05-07 02:00 | 43.62443 | 74.16473 | 31676 ft | 440 kts | 285° |
| 2026-05-07 02:00 | 43.63158 | 74.12402 | 31820 ft | 441 kts | 285° |
| 2026-05-07 02:01 | 43.63874 | 74.08305 | 31959 ft | 441 kts | 285° |
| 2026-05-07 02:01 | 43.65303 | 74.00079 | 32049 ft | 442 kts | 284° |
| 2026-05-07 02:02 | 43.66732 | 73.91788 | 32042 ft | 443 kts | 284° |
| 2026-05-07 02:02 | 43.68108 | 73.83536 | 32035 ft | 443 kts | 282° |
| 2026-05-07 02:03 | 43.68972 | 73.75160 | 32030 ft | 443 kts | 276° |
| 2026-05-07 02:03 | 43.69166 | 73.66717 | 32030 ft | 443 kts | 270° |
| 2026-05-07 02:04 | 43.68801 | 73.58226 | 32029 ft | 443 kts | 267° |
| 2026-05-07 02:04 | 43.68359 | 73.49790 | 32030 ft | 443 kts | 267° |
| 2026-05-07 02:05 | 43.67914 | 73.41361 | 32031 ft | 443 kts | 267° |
| 2026-05-07 02:05 | 43.67463 | 73.32892 | 32033 ft | 442 kts | 266° |
| 2026-05-07 02:06 | 43.67009 | 73.24463 | 32035 ft | 442 kts | 266° |
| 2026-05-07 02:06 | 43.66546 | 73.16017 | 32035 ft | 441 kts | 266° |
| 2026-05-07 02:07 | 43.66082 | 73.07625 | 32038 ft | 442 kts | 266° |
| 2026-05-07 02:07 | 43.65369 | 72.94951 | 32040 ft | 442 kts | 266° |
| 2026-05-07 02:08 | 43.64886 | 72.86512 | 32041 ft | 441 kts | 266° |
| 2026-05-07 02:08 | 43.64400 | 72.78122 | 32041 ft | 440 kts | 266° |
| 2026-05-07 02:09 | 43.63909 | 72.69750 | 32038 ft | 440 kts | 266° |
| 2026-05-07 02:09 | 43.63407 | 72.61312 | 32040 ft | 440 kts | 266° |
| 2026-05-07 02:10 | 43.62904 | 72.52943 | 32036 ft | 440 kts | 266° |
| 2026-05-07 02:10 | 43.62392 | 72.44540 | 32033 ft | 440 kts | 265° |
| 2026-05-07 02:11 | 43.61876 | 72.36182 | 32033 ft | 440 kts | 265° |
| 2026-05-07 02:11 | 43.61353 | 72.27784 | 32031 ft | 439 kts | 265° |
| 2026-05-07 02:12 | 43.60820 | 72.19358 | 32034 ft | 439 kts | 265° |
| 2026-05-07 02:12 | 43.60288 | 72.11028 | 32036 ft | 438 kts | 265° |
| 2026-05-07 02:13 | 43.59750 | 72.02714 | 32032 ft | 438 kts | 265° |
| 2026-05-07 02:13 | 43.59201 | 71.94324 | 32026 ft | 439 kts | 265° |
| 2026-05-07 02:14 | 43.58651 | 71.86002 | 32023 ft | 438 kts | 265° |
| 2026-05-07 02:14 | 43.58093 | 71.77663 | 32021 ft | 438 kts | 265° |
| 2026-05-07 02:15 | 43.57530 | 71.69332 | 32022 ft | 437 kts | 265° |
| 2026-05-07 02:15 | 43.56962 | 71.61031 | 32020 ft | 437 kts | 265° |
| 2026-05-07 02:16 | 43.56388 | 71.52696 | 32018 ft | 436 kts | 264° |
| 2026-05-07 02:16 | 43.55808 | 71.44413 | 32016 ft | 436 kts | 265° |
| 2026-05-07 02:17 | 43.55222 | 71.36101 | 32016 ft | 436 kts | 265° |
| 2026-05-07 02:17 | 43.54631 | 71.27824 | 32015 ft | 435 kts | 264° |
| 2026-05-07 02:18 | 43.54036 | 71.19568 | 32011 ft | 435 kts | 264° |
| 2026-05-07 02:18 | 43.53431 | 71.11254 | 32004 ft | 435 kts | 264° |
| 2026-05-07 02:19 | 43.52825 | 71.03048 | 32004 ft | 434 kts | 264° |
| 2026-05-07 02:19 | 43.52209 | 70.94792 | 32004 ft | 434 kts | 264° |
| 2026-05-07 02:20 | 43.51587 | 70.86518 | 32002 ft | 434 kts | 264° |
| 2026-05-07 02:20 | 43.50964 | 70.78292 | 32007 ft | 434 kts | 264° |
| 2026-05-07 02:21 | 43.50330 | 70.70077 | 32003 ft | 433 kts | 264° |
| 2026-05-07 02:21 | 43.49688 | 70.61877 | 32005 ft | 433 kts | 264° |
| 2026-05-07 02:22 | 43.49037 | 70.53632 | 32016 ft | 433 kts | 264° |
| 2026-05-07 02:22 | 43.48387 | 70.45483 | 32016 ft | 432 kts | 264° |
| 2026-05-07 02:23 | 43.47726 | 70.37279 | 32015 ft | 432 kts | 264° |
| 2026-05-07 02:23 | 43.47061 | 70.29108 | 32021 ft | 431 kts | 264° |
| 2026-05-07 02:24 | 43.46391 | 70.20943 | 32025 ft | 431 kts | 264° |
| 2026-05-07 02:24 | 43.45715 | 70.12772 | 32034 ft | 431 kts | 264° |
| 2026-05-07 02:25 | 43.45030 | 70.04590 | 32047 ft | 431 kts | 264° |
| 2026-05-07 02:25 | 43.44358 | 69.96624 | 32057 ft | 431 kts | 264° |
| 2026-05-07 02:26 | 43.43664 | 69.88475 | 32060 ft | 431 kts | 264° |
| 2026-05-07 02:26 | 43.42964 | 69.80336 | 32064 ft | 429 kts | 264° |
| 2026-05-07 02:27 | 43.42268 | 69.72186 | 32063 ft | 429 kts | 264° |
| 2026-05-07 02:27 | 43.41601 | 69.64080 | 32056 ft | 428 kts | 264° |
| 2026-05-07 02:28 | 43.40925 | 69.55962 | 32052 ft | 428 kts | 264° |
| 2026-05-07 02:28 | 43.40241 | 69.47862 | 32042 ft | 428 kts | 264° |
| 2026-05-07 02:29 | 43.39551 | 69.39772 | 32032 ft | 428 kts | 264° |
| 2026-05-07 02:29 | 43.38853 | 69.31698 | 32027 ft | 427 kts | 263° |
| 2026-05-07 02:30 | 43.38147 | 69.23606 | 32013 ft | 427 kts | 264° |
| 2026-05-07 02:30 | 43.37449 | 69.15575 | 32009 ft | 426 kts | 264° |
| 2026-05-07 02:31 | 43.36788 | 69.07479 | 32004 ft | 425 kts | 264° |
| 2026-05-07 02:31 | 43.36128 | 68.99454 | 32002 ft | 424 kts | 264° |
| 2026-05-07 02:32 | 43.35458 | 68.91436 | 31991 ft | 424 kts | 264° |
| 2026-05-07 02:32 | 43.34777 | 68.83398 | 31989 ft | 424 kts | 264° |
| 2026-05-07 02:33 | 43.34093 | 68.75407 | 31977 ft | 424 kts | 264° |
| 2026-05-07 02:33 | 43.33400 | 68.67405 | 31968 ft | 424 kts | 264° |
| 2026-05-07 02:34 | 43.32729 | 68.59679 | 31966 ft | 424 kts | 264° |
| 2026-05-07 02:34 | 43.31836 | 68.51704 | 31965 ft | 423 kts | 262° |
| 2026-05-07 02:35 | 43.30882 | 68.43785 | 31960 ft | 423 kts | 262° |
| 2026-05-07 02:35 | 43.29847 | 68.35878 | 31965 ft | 422 kts | 259° |
| 2026-05-07 02:36 | 43.28440 | 68.28040 | 31966 ft | 422 kts | 257° |
| 2026-05-07 02:36 | 43.27014 | 68.20303 | 31963 ft | 421 kts | 257° |
| 2026-05-07 02:37 | 43.25573 | 68.12519 | 31970 ft | 421 kts | 257° |
| 2026-05-07 02:37 | 43.24129 | 68.04762 | 31973 ft | 421 kts | 257° |
| 2026-05-07 02:38 | 43.22682 | 67.97022 | 31964 ft | 420 kts | 257° |
| 2026-05-07 02:38 | 43.21231 | 67.89307 | 31957 ft | 420 kts | 257° |
| 2026-05-07 02:39 | 43.19770 | 67.81565 | 31948 ft | 420 kts | 257° |
| 2026-05-07 02:39 | 43.18310 | 67.73841 | 31947 ft | 420 kts | 257° |
| 2026-05-07 02:40 | 43.16845 | 67.66112 | 31946 ft | 419 kts | 257° |
| 2026-05-07 02:40 | 43.15373 | 67.58397 | 31948 ft | 419 kts | 257° |
| 2026-05-07 02:41 | 43.13900 | 67.50728 | 31946 ft | 419 kts | 257° |
| 2026-05-07 02:41 | 43.12423 | 67.43045 | 31944 ft | 419 kts | 257° |
| 2026-05-07 02:42 | 43.10942 | 67.35340 | 31948 ft | 419 kts | 257° |
| 2026-05-07 02:42 | 43.09460 | 67.27674 | 31946 ft | 418 kts | 256° |
| 2026-05-07 02:43 | 43.07974 | 67.20026 | 31942 ft | 418 kts | 256° |
| 2026-05-07 02:43 | 43.06476 | 67.12348 | 31945 ft | 418 kts | 256° |
| 2026-05-07 02:44 | 43.04983 | 67.04725 | 31941 ft | 417 kts | 256° |
| 2026-05-07 02:44 | 43.03476 | 66.97063 | 31938 ft | 417 kts | 256° |
| 2026-05-07 02:45 | 43.01975 | 66.89478 | 31943 ft | 416 kts | 256° |
| 2026-05-07 02:45 | 43.00460 | 66.81860 | 31942 ft | 416 kts | 256° |
| 2026-05-07 02:46 | 42.98945 | 66.74276 | 31938 ft | 416 kts | 256° |
| 2026-05-07 02:46 | 42.97403 | 66.66671 | 31939 ft | 417 kts | 256° |
| 2026-05-07 02:47 | 42.95858 | 66.59072 | 31935 ft | 417 kts | 256° |
| 2026-05-07 02:47 | 42.94336 | 66.51457 | 31931 ft | 417 kts | 256° |
| 2026-05-07 02:48 | 42.92810 | 66.43849 | 31927 ft | 416 kts | 256° |
| 2026-05-07 02:48 | 42.91280 | 66.36259 | 31929 ft | 417 kts | 256° |
| 2026-05-07 02:49 | 42.89729 | 66.28622 | 31931 ft | 417 kts | 255° |
| 2026-05-07 02:49 | 42.88182 | 66.21030 | 31925 ft | 415 kts | 255° |
| 2026-05-07 02:50 | 42.86634 | 66.13462 | 31924 ft | 416 kts | 255° |
| 2026-05-07 02:50 | 42.85078 | 66.05884 | 31927 ft | 416 kts | 255° |
| 2026-05-07 02:51 | 42.83511 | 65.98321 | 31931 ft | 415 kts | 255° |
| 2026-05-07 02:51 | 42.81935 | 65.90762 | 31919 ft | 415 kts | 255° |
| 2026-05-07 02:52 | 42.80352 | 65.83216 | 31923 ft | 415 kts | 255° |
| 2026-05-07 02:52 | 42.78769 | 65.75678 | 31920 ft | 415 kts | 255° |
| 2026-05-07 02:53 | 42.77184 | 65.68130 | 31922 ft | 416 kts | 255° |
| 2026-05-07 02:53 | 42.76918 | 65.66869 | 31923 ft | 416 kts | 255° |